sensor_id;sensor_type;location;lat;lon;timestamp;temperature;humidity
10245;DHT22;5167;52.164;10.530;2024-03-02T00:00:50;11.00;25.60
10245;DHT22;5167;52.164;10.530;2024-03-02T00:03:17;11.00;25.60
10245;DHT22;5167;52.164;10.530;2024-03-02T00:05:42;11.00;25.40
10245;DHT22;5167;52.164;10.530;2024-03-02T00:08:08;11.00;24.60
10245;DHT22;5167;52.164;10.530;2024-03-02T00:10:39;11.00;25.40
10245;DHT22;5167;52.164;10.530;2024-03-02T00:13:06;11.00;25.50
10245;DHT22;5167;52.164;10.530;2024-03-02T00:18:13;11.00;25.40
10245;DHT22;5167;52.164;10.530;2024-03-02T00:20:40;10.90;25.10
10245;DHT22;5167;52.164;10.530;2024-03-02T00:23:10;11.00;24.40
10245;DHT22;5167;52.164;10.530;2024-03-02T00:25:53;11.00;25.10
10245;DHT22;5167;52.164;10.530;2024-03-02T00:28:24;11.00;25.30
10245;DHT22;5167;52.164;10.530;2024-03-02T00:31:10;11.00;24.60
10245;DHT22;5167;52.164;10.530;2024-03-02T00:33:44;10.90;25.20
10245;DHT22;5167;52.164;10.530;2024-03-02T00:36:12;10.90;24.80
10245;DHT22;5167;52.164;10.530;2024-03-02T00:38:48;10.90;25.50
10245;DHT22;5167;52.164;10.530;2024-03-02T00:46:12;10.80;26.40
10245;DHT22;5167;52.164;10.530;2024-03-02T00:48:39;10.80;25.50
10245;DHT22;5167;52.164;10.530;2024-03-02T00:51:05;10.80;25.30
10245;DHT22;5167;52.164;10.530;2024-03-02T00:53:32;10.80;25.60
10245;DHT22;5167;52.164;10.530;2024-03-02T00:56:01;10.80;25.80
10245;DHT22;5167;52.164;10.530;2024-03-02T00:58:27;10.80;26.30
10245;DHT22;5167;52.164;10.530;2024-03-02T01:00:52;10.80;26.40
10245;DHT22;5167;52.164;10.530;2024-03-02T01:03:18;10.70;26.70
10245;DHT22;5167;52.164;10.530;2024-03-02T01:05:44;10.70;26.90
10245;DHT22;5167;52.164;10.530;2024-03-02T01:08:12;10.70;26.80
10245;DHT22;5167;52.164;10.530;2024-03-02T01:10:38;10.80;27.10
10245;DHT22;5167;52.164;10.530;2024-03-02T01:13:03;10.80;26.50
10245;DHT22;5167;52.164;10.530;2024-03-02T01:15:29;10.90;26.30
10245;DHT22;5167;52.164;10.530;2024-03-02T01:17:54;10.70;25.60
10245;DHT22;5167;52.164;10.530;2024-03-02T01:20:20;10.70;26.40
10245;DHT22;5167;52.164;10.530;2024-03-02T01:22:45;10.80;26.50
10245;DHT22;5167;52.164;10.530;2024-03-02T01:25:11;10.70;26.10
10245;DHT22;5167;52.164;10.530;2024-03-02T01:27:36;10.70;25.70
10245;DHT22;5167;52.164;10.530;2024-03-02T01:30:02;10.70;25.00
10245;DHT22;5167;52.164;10.530;2024-03-02T01:32:27;10.60;25.10
10245;DHT22;5167;52.164;10.530;2024-03-02T01:34:52;10.60;25.60
10245;DHT22;5167;52.164;10.530;2024-03-02T01:37:18;10.60;25.30
10245;DHT22;5167;52.164;10.530;2024-03-02T01:39:43;10.60;25.00
10245;DHT22;5167;52.164;10.530;2024-03-02T01:42:09;10.50;26.00
10245;DHT22;5167;52.164;10.530;2024-03-02T01:44:36;10.60;26.10
10245;DHT22;5167;52.164;10.530;2024-03-02T01:47:01;10.60;25.70
10245;DHT22;5167;52.164;10.530;2024-03-02T01:49:27;10.50;25.70
10245;DHT22;5167;52.164;10.530;2024-03-02T01:51:52;10.50;26.40
10245;DHT22;5167;52.164;10.530;2024-03-02T01:54:18;10.50;26.50
10245;DHT22;5167;52.164;10.530;2024-03-02T01:56:43;10.40;26.80
10245;DHT22;5167;52.164;10.530;2024-03-02T01:59:09;10.40;27.10
10245;DHT22;5167;52.164;10.530;2024-03-02T02:01:34;10.60;27.00
10245;DHT22;5167;52.164;10.530;2024-03-02T02:04:00;10.40;27.10
10245;DHT22;5167;52.164;10.530;2024-03-02T02:06:25;10.40;27.20
10245;DHT22;5167;52.164;10.530;2024-03-02T02:08:51;10.50;27.60
10245;DHT22;5167;52.164;10.530;2024-03-02T02:11:17;10.40;27.70
10245;DHT22;5167;52.164;10.530;2024-03-02T02:13:43;10.40;27.70
10245;DHT22;5167;52.164;10.530;2024-03-02T02:16:08;10.30;28.20
10245;DHT22;5167;52.164;10.530;2024-03-02T02:18:34;10.30;28.20
10245;DHT22;5167;52.164;10.530;2024-03-02T02:21:01;10.20;28.10
10245;DHT22;5167;52.164;10.530;2024-03-02T02:23:27;10.20;29.00
10245;DHT22;5167;52.164;10.530;2024-03-02T02:25:52;10.40;29.00
10245;DHT22;5167;52.164;10.530;2024-03-02T02:28:18;10.20;29.30
10245;DHT22;5167;52.164;10.530;2024-03-02T02:30:43;10.20;29.30
10245;DHT22;5167;52.164;10.530;2024-03-02T02:33:09;10.20;29.80
10245;DHT22;5167;52.164;10.530;2024-03-02T02:35:34;10.20;30.00
10245;DHT22;5167;52.164;10.530;2024-03-02T02:38:00;10.40;29.70
10245;DHT22;5167;52.164;10.530;2024-03-02T02:40:26;10.20;30.60
10245;DHT22;5167;52.164;10.530;2024-03-02T02:42:52;10.20;30.10
10245;DHT22;5167;52.164;10.530;2024-03-02T02:45:17;10.30;31.00
10245;DHT22;5167;52.164;10.530;2024-03-02T02:47:43;10.30;30.60
10245;DHT22;5167;52.164;10.530;2024-03-02T02:50:10;10.30;30.90
10245;DHT22;5167;52.164;10.530;2024-03-02T02:52:37;10.30;31.20
10245;DHT22;5167;52.164;10.530;2024-03-02T02:55:06;10.20;31.70
10245;DHT22;5167;52.164;10.530;2024-03-02T02:57:33;10.20;31.90
10245;DHT22;5167;52.164;10.530;2024-03-02T03:00:05;10.20;32.50
10245;DHT22;5167;52.164;10.530;2024-03-02T03:02:38;10.20;31.90
10245;DHT22;5167;52.164;10.530;2024-03-02T03:05:05;10.20;32.30
10245;DHT22;5167;52.164;10.530;2024-03-02T03:07:31;10.20;32.50
10245;DHT22;5167;52.164;10.530;2024-03-02T03:09:57;10.20;32.90
10245;DHT22;5167;52.164;10.530;2024-03-02T03:12:22;10.10;33.40
10245;DHT22;5167;52.164;10.530;2024-03-02T03:14:48;10.10;34.00
10245;DHT22;5167;52.164;10.530;2024-03-02T03:17:13;10.10;33.80
10245;DHT22;5167;52.164;10.530;2024-03-02T03:19:38;10.00;33.80
10245;DHT22;5167;52.164;10.530;2024-03-02T03:22:04;10.00;34.00
10245;DHT22;5167;52.164;10.530;2024-03-02T03:24:30;10.00;35.50
10245;DHT22;5167;52.164;10.530;2024-03-02T03:26:55;10.00;34.90
10245;DHT22;5167;52.164;10.530;2024-03-02T03:29:20;10.00;35.30
10245;DHT22;5167;52.164;10.530;2024-03-02T03:31:46;10.00;35.60
10245;DHT22;5167;52.164;10.530;2024-03-02T03:34:11;10.00;35.60
10245;DHT22;5167;52.164;10.530;2024-03-02T03:36:41;9.90;35.40
10245;DHT22;5167;52.164;10.530;2024-03-02T03:39:07;9.90;35.90
10245;DHT22;5167;52.164;10.530;2024-03-02T03:41:32;9.90;36.00
10245;DHT22;5167;52.164;10.530;2024-03-02T03:43:58;9.90;35.90
10245;DHT22;5167;52.164;10.530;2024-03-02T03:46:23;9.80;36.50
10245;DHT22;5167;52.164;10.530;2024-03-02T03:48:49;9.80;36.10
10245;DHT22;5167;52.164;10.530;2024-03-02T03:51:14;9.80;36.00
10245;DHT22;5167;52.164;10.530;2024-03-02T03:53:40;9.80;36.10
10245;DHT22;5167;52.164;10.530;2024-03-02T03:56:05;9.80;36.50
10245;DHT22;5167;52.164;10.530;2024-03-02T03:58:31;9.70;36.70
10245;DHT22;5167;52.164;10.530;2024-03-02T04:00:56;9.80;37.50
10245;DHT22;5167;52.164;10.530;2024-03-02T04:03:22;9.80;37.50
10245;DHT22;5167;52.164;10.530;2024-03-02T04:05:47;9.70;37.50
10245;DHT22;5167;52.164;10.530;2024-03-02T04:08:13;9.80;37.70
10245;DHT22;5167;52.164;10.530;2024-03-02T04:10:38;9.70;38.90
10245;DHT22;5167;52.164;10.530;2024-03-02T04:13:05;9.60;39.40
10245;DHT22;5167;52.164;10.530;2024-03-02T04:15:31;9.70;39.50
10245;DHT22;5167;52.164;10.530;2024-03-02T04:17:56;9.80;39.60
10245;DHT22;5167;52.164;10.530;2024-03-02T04:20:22;9.60;39.40
10245;DHT22;5167;52.164;10.530;2024-03-02T04:22:47;9.70;40.40
10245;DHT22;5167;52.164;10.530;2024-03-02T04:25:13;9.70;40.60
10245;DHT22;5167;52.164;10.530;2024-03-02T04:27:38;9.70;40.30
10245;DHT22;5167;52.164;10.530;2024-03-02T04:30:05;9.60;40.10
10245;DHT22;5167;52.164;10.530;2024-03-02T04:32:30;9.60;40.60
10245;DHT22;5167;52.164;10.530;2024-03-02T04:34:56;9.70;40.00
10245;DHT22;5167;52.164;10.530;2024-03-02T04:37:22;9.60;40.20
10245;DHT22;5167;52.164;10.530;2024-03-02T04:39:47;9.60;40.70
10245;DHT22;5167;52.164;10.530;2024-03-02T04:42:13;9.60;40.80
10245;DHT22;5167;52.164;10.530;2024-03-02T04:44:39;9.60;40.30
10245;DHT22;5167;52.164;10.530;2024-03-02T04:47:04;9.50;41.00
10245;DHT22;5167;52.164;10.530;2024-03-02T04:49:30;9.60;40.40
10245;DHT22;5167;52.164;10.530;2024-03-02T04:51:56;9.50;40.90
10245;DHT22;5167;52.164;10.530;2024-03-02T04:54:24;9.40;41.20
10245;DHT22;5167;52.164;10.530;2024-03-02T04:56:50;9.60;41.10
10245;DHT22;5167;52.164;10.530;2024-03-02T04:59:17;9.60;41.40
10245;DHT22;5167;52.164;10.530;2024-03-02T05:01:43;9.50;41.60
10245;DHT22;5167;52.164;10.530;2024-03-02T05:04:09;9.40;41.10
10245;DHT22;5167;52.164;10.530;2024-03-02T05:06:38;9.40;41.70
10245;DHT22;5167;52.164;10.530;2024-03-02T05:09:06;9.30;41.90
10245;DHT22;5167;52.164;10.530;2024-03-02T05:11:31;9.30;41.40
10245;DHT22;5167;52.164;10.530;2024-03-02T05:14:03;9.20;42.50
10245;DHT22;5167;52.164;10.530;2024-03-02T05:16:29;9.20;43.10
10245;DHT22;5167;52.164;10.530;2024-03-02T05:18:54;9.10;43.80
10245;DHT22;5167;52.164;10.530;2024-03-02T05:21:20;9.10;44.50
10245;DHT22;5167;52.164;10.530;2024-03-02T05:23:46;9.10;44.80
10245;DHT22;5167;52.164;10.530;2024-03-02T05:26:12;9.20;45.10
10245;DHT22;5167;52.164;10.530;2024-03-02T05:28:38;9.20;44.80
10245;DHT22;5167;52.164;10.530;2024-03-02T05:31:04;9.20;44.60
10245;DHT22;5167;52.164;10.530;2024-03-02T05:33:30;9.20;45.00
10245;DHT22;5167;52.164;10.530;2024-03-02T05:35:57;9.20;45.10
10245;DHT22;5167;52.164;10.530;2024-03-02T05:38:22;9.20;45.20
10245;DHT22;5167;52.164;10.530;2024-03-02T05:40:48;9.10;45.10
10245;DHT22;5167;52.164;10.530;2024-03-02T05:43:13;9.10;45.50
10245;DHT22;5167;52.164;10.530;2024-03-02T05:45:39;9.20;45.60
10245;DHT22;5167;52.164;10.530;2024-03-02T05:48:06;9.10;45.70
10245;DHT22;5167;52.164;10.530;2024-03-02T05:50:33;9.00;46.10
10245;DHT22;5167;52.164;10.530;2024-03-02T05:52:58;9.00;46.00
10245;DHT22;5167;52.164;10.530;2024-03-02T05:55:24;9.00;46.50
10245;DHT22;5167;52.164;10.530;2024-03-02T05:57:49;9.00;46.60
10245;DHT22;5167;52.164;10.530;2024-03-02T06:00:28;9.00;46.60
10245;DHT22;5167;52.164;10.530;2024-03-02T06:02:54;9.00;46.80
10245;DHT22;5167;52.164;10.530;2024-03-02T06:05:19;9.10;46.80
10245;DHT22;5167;52.164;10.530;2024-03-02T06:07:44;8.90;46.80
10245;DHT22;5167;52.164;10.530;2024-03-02T06:10:10;9.00;46.70
10245;DHT22;5167;52.164;10.530;2024-03-02T06:12:36;9.00;47.10
10245;DHT22;5167;52.164;10.530;2024-03-02T06:15:02;9.00;46.80
10245;DHT22;5167;52.164;10.530;2024-03-02T06:17:29;9.00;46.80
10245;DHT22;5167;52.164;10.530;2024-03-02T06:19:55;9.10;46.30
10245;DHT22;5167;52.164;10.530;2024-03-02T06:22:20;9.10;46.00
10245;DHT22;5167;52.164;10.530;2024-03-02T06:24:48;9.10;46.40
10245;DHT22;5167;52.164;10.530;2024-03-02T06:27:13;9.20;46.10
10245;DHT22;5167;52.164;10.530;2024-03-02T06:29:39;9.10;45.60
10245;DHT22;5167;52.164;10.530;2024-03-02T06:32:04;9.00;46.20
10245;DHT22;5167;52.164;10.530;2024-03-02T06:34:30;9.00;46.20
10245;DHT22;5167;52.164;10.530;2024-03-02T06:36:55;9.10;45.90
10245;DHT22;5167;52.164;10.530;2024-03-02T06:39:21;9.00;46.00
10245;DHT22;5167;52.164;10.530;2024-03-02T06:41:46;9.00;45.40
10245;DHT22;5167;52.164;10.530;2024-03-02T06:44:14;9.00;45.90
10245;DHT22;5167;52.164;10.530;2024-03-02T06:46:40;9.00;45.60
10245;DHT22;5167;52.164;10.530;2024-03-02T06:49:06;8.90;45.50
10245;DHT22;5167;52.164;10.530;2024-03-02T06:51:33;8.90;46.00
10245;DHT22;5167;52.164;10.530;2024-03-02T06:53:59;8.90;45.80
10245;DHT22;5167;52.164;10.530;2024-03-02T06:56:24;8.90;46.40
10245;DHT22;5167;52.164;10.530;2024-03-02T06:58:50;8.90;46.40
10245;DHT22;5167;52.164;10.530;2024-03-02T07:01:15;8.90;46.40
10245;DHT22;5167;52.164;10.530;2024-03-02T07:03:41;8.90;45.90
10245;DHT22;5167;52.164;10.530;2024-03-02T07:06:06;8.80;45.80
10245;DHT22;5167;52.164;10.530;2024-03-02T07:08:32;8.90;46.30
10245;DHT22;5167;52.164;10.530;2024-03-02T07:10:57;8.90;45.90
10245;DHT22;5167;52.164;10.530;2024-03-02T07:13:23;8.80;46.20
10245;DHT22;5167;52.164;10.530;2024-03-02T07:15:48;8.90;46.20
10245;DHT22;5167;52.164;10.530;2024-03-02T07:18:31;8.90;46.30
10245;DHT22;5167;52.164;10.530;2024-03-02T07:20:57;8.90;46.20
10245;DHT22;5167;52.164;10.530;2024-03-02T07:23:29;8.80;45.60
10245;DHT22;5167;52.164;10.530;2024-03-02T07:25:55;8.90;46.10
10245;DHT22;5167;52.164;10.530;2024-03-02T07:28:22;8.80;46.30
10245;DHT22;5167;52.164;10.530;2024-03-02T07:30:58;8.90;46.30
10245;DHT22;5167;52.164;10.530;2024-03-02T07:33:24;8.90;46.10
10245;DHT22;5167;52.164;10.530;2024-03-02T07:35:49;8.90;46.50
10245;DHT22;5167;52.164;10.530;2024-03-02T07:38:15;8.90;46.60
10245;DHT22;5167;52.164;10.530;2024-03-02T07:40:40;8.90;47.00
10245;DHT22;5167;52.164;10.530;2024-03-02T07:43:06;8.90;47.00
10245;DHT22;5167;52.164;10.530;2024-03-02T07:45:32;8.90;47.10
10245;DHT22;5167;52.164;10.530;2024-03-02T07:47:57;8.90;47.40
10245;DHT22;5167;52.164;10.530;2024-03-02T07:50:23;8.90;48.00
10245;DHT22;5167;52.164;10.530;2024-03-02T07:52:48;9.00;47.40
10245;DHT22;5167;52.164;10.530;2024-03-02T07:55:14;9.00;47.90
10245;DHT22;5167;52.164;10.530;2024-03-02T07:57:40;9.00;47.90
10245;DHT22;5167;52.164;10.530;2024-03-02T08:00:06;9.10;48.60
10245;DHT22;5167;52.164;10.530;2024-03-02T08:02:31;9.20;49.00
10245;DHT22;5167;52.164;10.530;2024-03-02T08:04:57;9.30;49.30
10245;DHT22;5167;52.164;10.530;2024-03-02T08:07:23;9.50;49.70
10245;DHT22;5167;52.164;10.530;2024-03-02T08:09:48;9.60;49.20
10245;DHT22;5167;52.164;10.530;2024-03-02T08:12:14;9.70;49.70
10245;DHT22;5167;52.164;10.530;2024-03-02T08:14:39;9.90;49.10
10245;DHT22;5167;52.164;10.530;2024-03-02T08:17:05;10.00;47.70
10245;DHT22;5167;52.164;10.530;2024-03-02T08:19:35;10.10;47.60
10245;DHT22;5167;52.164;10.530;2024-03-02T08:22:00;10.30;45.30
10245;DHT22;5167;52.164;10.530;2024-03-02T08:24:26;10.40;44.20
10245;DHT22;5167;52.164;10.530;2024-03-02T08:26:51;10.50;42.90
10245;DHT22;5167;52.164;10.530;2024-03-02T08:29:17;10.70;42.60
10245;DHT22;5167;52.164;10.530;2024-03-02T08:31:42;10.70;42.10
10245;DHT22;5167;52.164;10.530;2024-03-02T08:34:08;10.80;40.30
10245;DHT22;5167;52.164;10.530;2024-03-02T08:36:34;10.90;40.20
10245;DHT22;5167;52.164;10.530;2024-03-02T08:39:00;11.00;39.90
10245;DHT22;5167;52.164;10.530;2024-03-02T08:41:25;11.10;39.20
10245;DHT22;5167;52.164;10.530;2024-03-02T08:43:51;11.30;38.70
10245;DHT22;5167;52.164;10.530;2024-03-02T08:46:16;11.40;37.90
10245;DHT22;5167;52.164;10.530;2024-03-02T08:48:42;11.50;36.40
10245;DHT22;5167;52.164;10.530;2024-03-02T08:51:07;11.50;35.00
10245;DHT22;5167;52.164;10.530;2024-03-02T08:53:35;11.60;33.80
10245;DHT22;5167;52.164;10.530;2024-03-02T08:56:01;11.50;34.30
10245;DHT22;5167;52.164;10.530;2024-03-02T08:58:26;11.60;34.20
10245;DHT22;5167;52.164;10.530;2024-03-02T09:00:52;11.70;33.80
10245;DHT22;5167;52.164;10.530;2024-03-02T09:03:18;11.70;34.20
10245;DHT22;5167;52.164;10.530;2024-03-02T09:05:43;11.70;35.10
10245;DHT22;5167;52.164;10.530;2024-03-02T09:08:09;11.80;34.10
10245;DHT22;5167;52.164;10.530;2024-03-02T09:10:34;11.90;34.50
10245;DHT22;5167;52.164;10.530;2024-03-02T09:13:00;11.90;36.20
10245;DHT22;5167;52.164;10.530;2024-03-02T09:15:25;12.10;36.50
10245;DHT22;5167;52.164;10.530;2024-03-02T09:17:51;12.20;35.40
10245;DHT22;5167;52.164;10.530;2024-03-02T09:20:16;12.30;34.30
10245;DHT22;5167;52.164;10.530;2024-03-02T09:22:42;12.40;35.30
10245;DHT22;5167;52.164;10.530;2024-03-02T09:25:07;12.60;33.90
10245;DHT22;5167;52.164;10.530;2024-03-02T09:27:36;12.70;31.90
10245;DHT22;5167;52.164;10.530;2024-03-02T09:30:02;12.80;31.80
10245;DHT22;5167;52.164;10.530;2024-03-02T09:32:28;12.90;32.50
10245;DHT22;5167;52.164;10.530;2024-03-02T09:34:53;13.10;30.40
10245;DHT22;5167;52.164;10.530;2024-03-02T09:37:21;13.20;28.90
10245;DHT22;5167;52.164;10.530;2024-03-02T09:39:46;13.40;27.80
10245;DHT22;5167;52.164;10.530;2024-03-02T09:42:12;13.40;27.20
10245;DHT22;5167;52.164;10.530;2024-03-02T09:44:38;13.50;26.10
10245;DHT22;5167;52.164;10.530;2024-03-02T09:47:04;13.60;24.80
10245;DHT22;5167;52.164;10.530;2024-03-02T09:49:31;13.70;23.30
10245;DHT22;5167;52.164;10.530;2024-03-02T09:51:56;13.80;23.50
10245;DHT22;5167;52.164;10.530;2024-03-02T09:54:22;13.90;22.50
10245;DHT22;5167;52.164;10.530;2024-03-02T09:56:48;13.90;21.60
10245;DHT22;5167;52.164;10.530;2024-03-02T09:59:13;14.10;21.40
10245;DHT22;5167;52.164;10.530;2024-03-02T10:01:59;14.30;20.90
10245;DHT22;5167;52.164;10.530;2024-03-02T10:04:26;14.30;20.00
10245;DHT22;5167;52.164;10.530;2024-03-02T10:06:55;14.40;18.90
10245;DHT22;5167;52.164;10.530;2024-03-02T10:09:34;14.40;18.60
10245;DHT22;5167;52.164;10.530;2024-03-02T10:12:07;14.40;17.90
10245;DHT22;5167;52.164;10.530;2024-03-02T10:14:33;14.40;17.50
10245;DHT22;5167;52.164;10.530;2024-03-02T10:17:03;14.30;18.60
10245;DHT22;5167;52.164;10.530;2024-03-02T10:19:29;14.30;18.80
10245;DHT22;5167;52.164;10.530;2024-03-02T10:21:58;14.30;19.10
10245;DHT22;5167;52.164;10.530;2024-03-02T10:24:25;14.30;19.10
10245;DHT22;5167;52.164;10.530;2024-03-02T10:26:51;14.30;19.50
10245;DHT22;5167;52.164;10.530;2024-03-02T10:29:17;14.50;19.20
10245;DHT22;5167;52.164;10.530;2024-03-02T10:31:46;14.60;19.50
10245;DHT22;5167;52.164;10.530;2024-03-02T10:34:12;14.70;18.50
10245;DHT22;5167;52.164;10.530;2024-03-02T10:36:41;14.90;17.50
10245;DHT22;5167;52.164;10.530;2024-03-02T10:39:08;15.10;17.10
10245;DHT22;5167;52.164;10.530;2024-03-02T10:41:37;15.30;16.00
10245;DHT22;5167;52.164;10.530;2024-03-02T10:44:05;15.40;14.70
10245;DHT22;5167;52.164;10.530;2024-03-02T10:46:33;15.50;11.80
10245;DHT22;5167;52.164;10.530;2024-03-02T10:49:03;15.60;9.40
10245;DHT22;5167;52.164;10.530;2024-03-02T10:51:30;15.70;5.20
10245;DHT22;5167;52.164;10.530;2024-03-02T10:53:58;15.80;5.00
10245;DHT22;5167;52.164;10.530;2024-03-02T10:56:29;15.90;5.00
10245;DHT22;5167;52.164;10.530;2024-03-02T11:01:58;15.80;5.00
10245;DHT22;5167;52.164;10.530;2024-03-02T11:04:28;15.80;5.00
10245;DHT22;5167;52.164;10.530;2024-03-02T11:07:02;15.80;5.00
10245;DHT22;5167;52.164;10.530;2024-03-02T11:09:30;15.70;5.00
10245;DHT22;5167;52.164;10.530;2024-03-02T11:12:12;15.80;5.00
10245;DHT22;5167;52.164;10.530;2024-03-02T11:14:40;15.80;5.00
10245;DHT22;5167;52.164;10.530;2024-03-02T11:17:09;15.80;5.00
10245;DHT22;5167;52.164;10.530;2024-03-02T11:19:38;15.70;5.00
10245;DHT22;5167;52.164;10.530;2024-03-02T11:22:04;15.70;5.00
10245;DHT22;5167;52.164;10.530;2024-03-02T11:24:30;15.70;5.00
10245;DHT22;5167;52.164;10.530;2024-03-02T11:27:00;15.70;5.00
10245;DHT22;5167;52.164;10.530;2024-03-02T11:29:43;15.60;5.00
10245;DHT22;5167;52.164;10.530;2024-03-02T11:32:16;15.60;5.00
10245;DHT22;5167;52.164;10.530;2024-03-02T11:34:45;15.60;5.00
10245;DHT22;5167;52.164;10.530;2024-03-02T11:37:12;15.60;5.00
10245;DHT22;5167;52.164;10.530;2024-03-02T11:39:39;15.50;5.00
10245;DHT22;5167;52.164;10.530;2024-03-02T11:42:08;15.60;5.00
10245;DHT22;5167;52.164;10.530;2024-03-02T11:44:35;15.60;5.00
10245;DHT22;5167;52.164;10.530;2024-03-02T11:47:05;15.50;5.00
10245;DHT22;5167;52.164;10.530;2024-03-02T11:49:42;15.60;5.00
10245;DHT22;5167;52.164;10.530;2024-03-02T11:52:09;15.60;5.00
10245;DHT22;5167;52.164;10.530;2024-03-02T11:54:40;15.70;5.00
10245;DHT22;5167;52.164;10.530;2024-03-02T11:57:07;15.60;5.00
10245;DHT22;5167;52.164;10.530;2024-03-02T11:59:33;15.70;5.00
10245;DHT22;5167;52.164;10.530;2024-03-02T12:01:59;15.70;5.00
10245;DHT22;5167;52.164;10.530;2024-03-02T12:04:25;15.80;5.00
10245;DHT22;5167;52.164;10.530;2024-03-02T12:06:56;15.70;5.00
10245;DHT22;5167;52.164;10.530;2024-03-02T12:09:22;15.80;5.00
10245;DHT22;5167;52.164;10.530;2024-03-02T12:11:47;15.90;5.00
10245;DHT22;5167;52.164;10.530;2024-03-02T12:14:13;15.90;5.00
10245;DHT22;5167;52.164;10.530;2024-03-02T12:16:38;16.00;5.00
10245;DHT22;5167;52.164;10.530;2024-03-02T12:19:05;16.10;5.00
10245;DHT22;5167;52.164;10.530;2024-03-02T12:21:31;16.10;5.00
10245;DHT22;5167;52.164;10.530;2024-03-02T12:23:57;16.10;5.00
10245;DHT22;5167;52.164;10.530;2024-03-02T12:26:23;16.10;5.00
10245;DHT22;5167;52.164;10.530;2024-03-02T12:28:49;16.20;5.00
10245;DHT22;5167;52.164;10.530;2024-03-02T12:31:14;16.10;5.00
10245;DHT22;5167;52.164;10.530;2024-03-02T12:33:40;16.20;5.00
10245;DHT22;5167;52.164;10.530;2024-03-02T12:36:09;16.30;5.00
10245;DHT22;5167;52.164;10.530;2024-03-02T12:38:37;16.30;5.00
10245;DHT22;5167;52.164;10.530;2024-03-02T12:41:03;16.40;5.00
10245;DHT22;5167;52.164;10.530;2024-03-02T12:43:30;16.30;5.00
10245;DHT22;5167;52.164;10.530;2024-03-02T12:45:57;16.50;5.00
10245;DHT22;5167;52.164;10.530;2024-03-02T12:48:23;16.50;5.00
10245;DHT22;5167;52.164;10.530;2024-03-02T12:50:49;16.50;5.00
10245;DHT22;5167;52.164;10.530;2024-03-02T12:53:15;16.60;5.00
10245;DHT22;5167;52.164;10.530;2024-03-02T12:55:41;16.60;5.00
10245;DHT22;5167;52.164;10.530;2024-03-02T12:58:08;16.60;5.00
10245;DHT22;5167;52.164;10.530;2024-03-02T13:00:34;16.60;5.00
10245;DHT22;5167;52.164;10.530;2024-03-02T13:03:00;16.70;5.00
10245;DHT22;5167;52.164;10.530;2024-03-02T13:05:32;16.70;5.00
10245;DHT22;5167;52.164;10.530;2024-03-02T13:07:58;16.70;5.00
10245;DHT22;5167;52.164;10.530;2024-03-02T13:10:25;16.70;5.00
10245;DHT22;5167;52.164;10.530;2024-03-02T13:12:50;16.70;5.00
10245;DHT22;5167;52.164;10.530;2024-03-02T13:15:16;16.80;5.00
10245;DHT22;5167;52.164;10.530;2024-03-02T13:17:42;16.70;5.00
10245;DHT22;5167;52.164;10.530;2024-03-02T13:20:07;16.70;5.00
10245;DHT22;5167;52.164;10.530;2024-03-02T13:22:36;16.60;5.00
10245;DHT22;5167;52.164;10.530;2024-03-02T13:25:01;16.60;5.00
10245;DHT22;5167;52.164;10.530;2024-03-02T13:27:30;16.60;5.00
10245;DHT22;5167;52.164;10.530;2024-03-02T13:29:55;16.50;5.00
10245;DHT22;5167;52.164;10.530;2024-03-02T13:32:21;16.50;5.00
10245;DHT22;5167;52.164;10.530;2024-03-02T13:34:49;16.50;5.00
10245;DHT22;5167;52.164;10.530;2024-03-02T13:37:14;16.50;5.00
10245;DHT22;5167;52.164;10.530;2024-03-02T13:39:40;16.50;5.00
10245;DHT22;5167;52.164;10.530;2024-03-02T13:42:08;16.50;5.00
10245;DHT22;5167;52.164;10.530;2024-03-02T13:44:35;16.50;5.00
10245;DHT22;5167;52.164;10.530;2024-03-02T13:47:01;16.50;5.00
10245;DHT22;5167;52.164;10.530;2024-03-02T13:49:26;16.50;5.00
10245;DHT22;5167;52.164;10.530;2024-03-02T13:52:06;16.40;5.00
10245;DHT22;5167;52.164;10.530;2024-03-02T13:54:42;16.40;5.00
10245;DHT22;5167;52.164;10.530;2024-03-02T13:57:09;16.40;5.00
10245;DHT22;5167;52.164;10.530;2024-03-02T13:59:35;16.40;5.00
10245;DHT22;5167;52.164;10.530;2024-03-02T14:02:02;16.50;5.00
10245;DHT22;5167;52.164;10.530;2024-03-02T14:04:31;16.50;5.00
10245;DHT22;5167;52.164;10.530;2024-03-02T14:06:57;16.50;5.00
10245;DHT22;5167;52.164;10.530;2024-03-02T14:09:22;16.50;5.00
10245;DHT22;5167;52.164;10.530;2024-03-02T14:11:50;16.60;5.00
10245;DHT22;5167;52.164;10.530;2024-03-02T14:14:16;16.60;5.00
10245;DHT22;5167;52.164;10.530;2024-03-02T14:16:41;16.60;5.00
10245;DHT22;5167;52.164;10.530;2024-03-02T14:19:07;16.60;5.00
10245;DHT22;5167;52.164;10.530;2024-03-02T14:21:32;16.90;5.00
10245;DHT22;5167;52.164;10.530;2024-03-02T14:23:58;16.70;5.00
10245;DHT22;5167;52.164;10.530;2024-03-02T14:26:23;16.70;5.00
10245;DHT22;5167;52.164;10.530;2024-03-02T14:28:48;16.70;5.00
10245;DHT22;5167;52.164;10.530;2024-03-02T14:31:14;16.70;5.00
10245;DHT22;5167;52.164;10.530;2024-03-02T14:33:39;16.60;5.00
10245;DHT22;5167;52.164;10.530;2024-03-02T14:36:05;16.80;5.00
10245;DHT22;5167;52.164;10.530;2024-03-02T14:38:31;16.60;5.00
10245;DHT22;5167;52.164;10.530;2024-03-02T14:40:57;16.60;5.00
10245;DHT22;5167;52.164;10.530;2024-03-02T14:43:22;16.90;5.00
10245;DHT22;5167;52.164;10.530;2024-03-02T14:45:48;16.60;5.00
10245;DHT22;5167;52.164;10.530;2024-03-02T14:48:14;16.60;5.00
10245;DHT22;5167;52.164;10.530;2024-03-02T14:50:39;16.60;5.00
10245;DHT22;5167;52.164;10.530;2024-03-02T14:53:05;16.60;5.00
10245;DHT22;5167;52.164;10.530;2024-03-02T14:55:32;16.50;5.00
10245;DHT22;5167;52.164;10.530;2024-03-02T14:57:59;16.40;5.00
10245;DHT22;5167;52.164;10.530;2024-03-02T15:00:25;16.40;5.00
10245;DHT22;5167;52.164;10.530;2024-03-02T15:02:50;16.30;5.00
10245;DHT22;5167;52.164;10.530;2024-03-02T15:05:16;16.40;5.00
10245;DHT22;5167;52.164;10.530;2024-03-02T15:07:41;16.30;5.00
10245;DHT22;5167;52.164;10.530;2024-03-02T15:10:07;16.30;5.00
10245;DHT22;5167;52.164;10.530;2024-03-02T15:12:33;16.20;5.00
10245;DHT22;5167;52.164;10.530;2024-03-02T15:14:58;16.20;5.00
10245;DHT22;5167;52.164;10.530;2024-03-02T15:17:24;16.20;5.00
10245;DHT22;5167;52.164;10.530;2024-03-02T15:19:50;16.20;5.00
10245;DHT22;5167;52.164;10.530;2024-03-02T15:22:15;16.10;5.00
10245;DHT22;5167;52.164;10.530;2024-03-02T15:24:41;16.20;5.00
10245;DHT22;5167;52.164;10.530;2024-03-02T15:27:07;16.10;5.00
10245;DHT22;5167;52.164;10.530;2024-03-02T15:29:37;16.10;5.00
10245;DHT22;5167;52.164;10.530;2024-03-02T15:32:05;16.10;5.00
10245;DHT22;5167;52.164;10.530;2024-03-02T15:34:32;16.00;5.00
10245;DHT22;5167;52.164;10.530;2024-03-02T15:36:58;16.00;5.00
10245;DHT22;5167;52.164;10.530;2024-03-02T15:39:23;16.00;5.00
10245;DHT22;5167;52.164;10.530;2024-03-02T15:41:49;15.90;5.00
10245;DHT22;5167;52.164;10.530;2024-03-02T15:44:15;15.90;5.00
10245;DHT22;5167;52.164;10.530;2024-03-02T15:46:41;15.90;5.00